• Join FlightAware (Why Join?)
  • Login
  • US Flag 
01:05AM EDT


 

Airport Tracker/Info


-or-


 

Live Flight TrackerFlight Track Log ✈ JBU1049 ✈ 05-Jul-2013 ✈ KFLL - MDSD / SDQ

Flight Track Log - Related Links

Times and Time Zones

All times are in EDT time to prevent confusion due to time zone crossing. See the JBU1049 flight status page for this flight to view local times or setup timezone preferences in your user account.

Time Position Orientation Groundspeed Altitude Reporting Facility
EDT Latitude Longitude Course Direction KTS MPH feet Rate Location/Type
11:01PM 26.0770 -80.1210 84° East 153 176 1,400  Level FlightAware
11:02PM 26.0800 -80.1020 80° East 173 199 1,800 960 Climbing FlightAware
11:02PM 26.0840 -80.0700 82° East 226 260 2,300 1,320 Climbing FlightAware
11:03PM 26.0820 -80.0350 94° East 258 297 3,100 2,400 Climbing FlightAware
11:03PM 26.0770 -80.0050 101° East 262 302 4,300 3,120 Climbing FlightAware
11:04PM 26.0700 -79.9680 102° East 269 310 5,800 3,000 Climbing FlightAware
11:04PM 26.0640 -79.9290 100° East 277 319 7,100 2,880 Climbing FlightAware
11:05PM 26.0590 -79.8950 99° East 281 323 8,300 2,760 Climbing FlightAware
11:05PM 26.0530 -79.8570 100° East 289 333 9,400 1,920 Climbing FlightAware
11:06PM 26.0410 -79.7850 100° East 322 371 10,700 1,500 Climbing FlightAware
11:07PM 26.0280 -79.7070 100° East 354 407 11,700 1,680 Climbing FlightAware
11:07PM 26.0180 -79.6440 100° East 360 414 13,000 2,100 Climbing FlightAware
11:08PM 26.0040 -79.5590 100° East 362 417 14,600 2,100 Climbing FlightAware
11:08PM 25.9940 -79.5010 101° East 365 420 15,800 1,980 Climbing FlightAware
11:09PM 25.9820 -79.4290 100° East 370 426 17,000 1,560 Climbing FlightAware
11:10PM 25.9510 -79.3440 112° Southeast 382 440 18,100 1,560 Climbing FlightAware
11:10PM 25.9160 -79.2850 123° Southeast 384 442 19,200 1,620 Climbing FlightAware
11:11PM 25.8790 -79.2240 124° Southeast 386 444 20,100 1,500 Climbing FlightAware
11:12PM 25.8340 -79.1490 124° Southeast 392 451 21,300 1,500 Climbing FlightAware
11:12PM 25.7930 -79.0800 123° Southeast 396 456 22,300 1,260 Climbing FlightAware
11:13PM 25.7500 -79.0080 124° Southeast 406 467 23,100 1,140 Climbing FlightAware
11:14PM 25.7020 -78.9280 124° Southeast 410 472 24,000 1,200 Climbing FlightAware
11:15PM 25.6620 -78.8610 124° Southeast 415 478 24,800 1,020 Climbing FlightAware
11:15PM 25.6230 -78.7960 124° Southeast 425 489 25,300 900 Climbing FlightAware
11:16PM 25.5780 -78.7200 123° Southeast 429 494 26,000 960 Climbing FlightAware
11:17PM 25.5280 -78.6380 124° Southeast 437 503 26,700 900 Climbing FlightAware
11:17PM 25.4920 -78.5770 123° Southeast 441 507 27,200 780 Climbing FlightAware
11:18PM 25.4420 -78.4950 124° Southeast 448 516 27,700 780 Climbing FlightAware
11:18PM 25.4010 -78.4270 124° Southeast 448 516 28,300 780 Climbing FlightAware
11:19PM 25.3470 -78.3370 124° Southeast 461 531 28,800 720 Climbing FlightAware
11:20PM 25.3000 -78.2600 124° Southeast 460 529 29,400 1,080 Climbing FlightAware
11:21PM 25.2530 -78.1820 124° Southeast 459 528 30,300 1,140 Climbing FlightAware
11:22PM 25.1650 -78.0380 124° Southeast 449 517 31,600 780 Climbing FlightAware
11:23PM 25.0990 -77.9300 124° Southeast 462 532 32,100 420 Climbing FlightAware
11:24PM 25.0400 -77.8310 123° Southeast 462 532 32,500 240 Climbing FlightAware
11:24PM 25.0030 -77.7690 123° Southeast 462 532 32,500  Level FlightAware
11:25PM 24.9560 -77.6880 123° Southeast 462 532 32,500  Level FlightAware
11:26PM 24.9200 -77.6280 123° Southeast 462 532 32,500 1,920 Level FlightAware
11:27PM 24.8210 -77.4770 126° Southeast 455 524 35,500 2,040 Climbing FlightAware
11:27PM 24.7920 -77.4290 124° Southeast 455 524 35,500  Level FlightAware
11:28PM 24.7440 -77.3510 124° Southeast 455 524 35,500  Level FlightAware
11:29PM 24.7080 -77.2920 124° Southeast 455 524 35,500  Level FlightAware
11:29PM 24.6600 -77.2140 124° Southeast 455 524 35,500  Level FlightAware
11:30PM 24.6230 -77.1530 124° Southeast 455 524 35,500  Level FlightAware
11:31PM 24.5750 -77.0750 124° Southeast 455 524 35,500  Level FlightAware
11:31PM 24.5390 -77.0160 124° Southeast 455 524 35,500  Level FlightAware
11:32PM 24.5030 -76.9580 124° Southeast 455 524 35,500  Level FlightAware
11:33PM 24.4550 -76.8790 124° Southeast 455 524 35,500  Level FlightAware
11:33PM 24.4180 -76.8190 124° Southeast 455 524 35,500  Level FlightAware
11:34PM 24.3700 -76.7410 124° Southeast 455 524 35,500  Level FlightAware
11:35PM 24.3340 -76.6820 124° Southeast 455 524 35,500  Level FlightAware
11:36PM 24.2860 -76.6040 124° Southeast 455 524 35,500  Level FlightAware
11:36PM 24.2490 -76.5460 125° Southeast 455 524 35,500 840 Level FlightAware
11:37PM 24.0769 -76.2897 125° Southeast 443 510 37,000 660 Climbing Miami Center
11:38PM 24.0075 -76.1764 124° Southeast 448 516 37,000  Level Miami Center
11:39PM 23.9358 -76.0653 125° Southeast 448 516 37,000  Level Miami Center
11:40PM 23.8664 -75.9500 123° Southeast 448 516 37,000  Level Miami Center
11:41PM 23.7967 -75.8392 124° Southeast 448 516 37,000  Level Miami Center
11:42PM 23.7333 -75.7397 125° Southeast 448 516 37,000  Level Miami Center
11:43PM 23.6592 -75.6247 125° Southeast 448 516 37,000  Level Miami Center
11:44PM 23.5872 -75.5122 125° Southeast 448 516 37,000  Level Miami Center
11:45PM 23.5131 -75.3997 126° Southeast 448 516 37,000  Level Miami Center
11:46PM 23.4408 -75.2894 126° Southeast 448 516 37,000  Level Miami Center
11:47PM 23.3706 -75.1794 125° Southeast 448 516 37,000  Level Miami Center
11:48PM 23.2983 -75.0672 125° Southeast 448 516 37,000  Level Miami Center
11:49PM 23.2258 -74.9575 126° Southeast 448 516 37,000  Level Miami Center
11:50PM 23.1514 -74.8458 126° Southeast 448 516 37,000  Level Miami Center
11:51PM 23.0786 -74.7317 125° Southeast 448 516 37,000  Level Miami Center
11:52PM 23.0061 -74.6200 125° Southeast 448 516 37,000  Level Miami Center
11:53PM 22.9333 -74.5108 126° Southeast 448 516 37,000  Level Miami Center
11:54PM 22.8606 -74.3994 125° Southeast 447 514 37,000  Level Miami Center
11:55PM 22.7897 -74.2881 125° Southeast 447 514 37,000  Level Miami Center
11:56PM 22.7147 -74.1769 126° Southeast 447 514 37,000  Level Miami Center
11:57PM 22.6436 -74.0639 124° Southeast 447 514 37,000  Level Miami Center
11:58PM 22.5686 -73.9531 126° Southeast 447 514 37,000  Level Miami Center
11:59PM 22.4933 -73.8444 127° Southeast 447 514 37,000  Level Miami Center
12:00AM 22.4200 -73.7339 126° Southeast 447 514 37,000  Level Miami Center
12:01AM 22.3489 -73.6211 124° Southeast 447 514 37,000  Level Miami Center
12:02AM 22.2647 -73.5042 128° Southeast 447 514 37,000  Level Miami Center
12:03AM 22.2019 -73.4072 125° Southeast 447 514 37,000  Level Miami Center
12:04AM 22.1306 -73.2969 125° Southeast 447 514 37,000  Level Miami Center
12:05AM 22.0528 -73.1894 128° Southeast 447 514 37,000  Level Miami Center
12:06AM 21.9792 -73.0794 126° Southeast 447 514 37,000  Level Miami Center
12:07AM 21.9094 -72.9675 124° Southeast 447 514 37,000  Level Miami Center
12:08AM 21.8336 -72.8600 127° Southeast 447 514 37,000  Level Miami Center
12:09AM 21.7597 -72.7483 125° Southeast 447 514 37,000  Level Miami Center
12:10AM 21.6858 -72.6389 126° Southeast 447 514 37,000  Level Miami Center
12:11AM 21.6078 -72.5300 128° Southeast 447 514 37,000  Level Miami Center
12:12AM 21.5356 -72.4186 125° Southeast 447 514 37,000  Level Miami Center
12:13AM 21.4614 -72.3072 126° Southeast 447 514 37,000  Level Miami Center
12:14AM 21.3831 -72.1964 127° Southeast 452 520 37,000  Level Miami Center
12:15AM 21.3086 -72.0853 126° Southeast 452 520 37,000  Level Miami Center
12:16AM 21.2319 -71.9722 126° Southeast 457 526 37,000  Level Miami Center
12:17AM 21.1575 -71.8639 126° Southeast 457 526 37,000  Level Miami Center
12:18AM 21.0789 -71.7533 127° Southeast 463 533 37,000  Level Miami Center
12:19AM 21.0042 -71.6408 125° Southeast 463 533 37,000  Level Miami Center
12:20AM 20.9253 -71.5306 127° Southeast 463 533 37,000  Level Miami Center
12:21AM 20.8506 -71.4203 126° Southeast 463 533 37,000  Level Miami Center
12:22AM 20.7717 -71.3083 127° Southeast 469 540 37,000  Level Miami Center
12:23AM 20.6967 -71.1983 126° Southeast 469 540 37,000  Level Miami Center
12:24AM 20.6217 -71.0883 126° Southeast 469 540 37,000  Level Miami Center
12:25AM 20.5447 -70.9767 126° Southeast 469 540 37,000  Level Miami Center
12:26AM 20.4594 -70.8742 132° Southeast 469 540 37,000  Level Miami Center
12:27AM 20.3542 -70.7903 143° Southeast 469 540 37,000 -960 Level Miami Center
12:33AM 19.7270 -70.4760 143° Southeast 472 543 31,000 -1,020 Descending FlightAware
12:33AM 19.6670 -70.4360 148° Southeast 472 543 31,000  Level FlightAware
12:34AM 19.5900 -70.3850 148° Southeast 472 543 31,000  Level FlightAware
12:35AM 19.5330 -70.3470 148° Southeast 472 543 31,000  Level FlightAware
12:36AM 19.4560 -70.2960 148° Southeast 472 543 31,000  Level FlightAware
12:36AM 19.3990 -70.2590 149° Southeast 472 543 31,000  Level FlightAware
12:37AM 19.3380 -70.2180 148° Southeast 472 543 31,000  Level FlightAware
12:38AM 19.2620 -70.1680 148° Southeast 472 543 31,000  Level FlightAware
12:38AM 19.2060 -70.1310 148° Southeast 472 543 31,000  Level FlightAware
12:39AM 19.1460 -70.0910 148° Southeast 472 543 31,000  Level FlightAware
12:40AM 19.0700 -70.0410 148° Southeast 472 543 31,000  Level FlightAware
12:40AM 19.0120 -70.0030 148° Southeast 472 543 31,000  Level FlightAware
12:41AM 18.9180 -69.9400 148° Southeast 472 543 31,000 -10,260 Level FlightAware
12:42AM 18.8150 -69.8820 152° Southeast 348 400 11,200 -11,880 Descending FlightAware
12:43AM 18.7550 -69.8450 150° Southeast 304 350 10,300 -1,560 Descending FlightAware
12:43AM 18.7310 -69.8300 149° Southeast 282 325 9,500 -1,020 Descending FlightAware
12:44AM 18.6730 -69.7920 148° Southeast 280 322 9,000 -480 Descending FlightAware
12:44AM 18.6640 -69.7850 144° Southeast 280 322 9,000  Level FlightAware
12:45AM 18.6390 -69.7690 149° Southeast 280 322 9,000  Level FlightAware
12:46AM 18.6040 -69.7460 148° Southeast 280 322 9,000  Level FlightAware
12:48AM 18.4297 -69.6689 159° South  Level Estimated
12:49AM 18.4297 -69.6689 159° South  Level Estimated
12:50AM 18.4297 -69.6689 159° South  Level Estimated
12:51AM 18.4297 -69.6689 159° South  Level Estimated
12:52AM 18.4297 -69.6689 159° South  Level Estimated
12:53AM 18.4297 -69.6689 159° South  Level Estimated
12:54AM 18.4297 -69.6689 159° South  Level Estimated
12:55AM 18.4297 -69.6689 159° South  Level Estimated
12:56AM 18.4297 -69.6689 159° South  Level Estimated
12:57AM 18.4297 -69.6689 159° South  Level Estimated
12:58AM 18.4297 -69.6689 159° South  Level Estimated
12:59AM 18.4297 -69.6689 159° South  Level Estimated
01:00AM 18.4297 -69.6689 159° South  Level Estimated
01:01AM 18.4297 -69.6689 159° South  Level Estimated
01:02AM 18.4297 -69.6689 159° South  Level Estimated
01:03AM 18.4297 -69.6689 159° South  Level Estimated
01:04AM 18.4297 -69.6689 159° South  Level Estimated
01:05AM 18.4297 -69.6689 159° South  Level Estimated
01:06AM 18.4297 -69.6689 159° South  Level Estimated
01:07AM 18.4297 -69.6689 159° South  Level Estimated
01:08AM 18.4297 -69.6689 159° South  Level Estimated